Time;durP1;ratioP1;P1;durP2;ratioP2;P2;SDS_P1;SDS_P2;PMS_P1;PMS_P2;Temp;Humidity;BMP_temperature;BMP_pressure;BME280_temperature;BME280_humidity;BME280_pressure;Samples;Min_cycle;Max_cycle;Signal;HPM_P1;HPM_P2
2023/07/11 00:00:23;;;;;;;9.60;8.37;;;;;;;25.12;46.88;96534.56;5046886;28;20159;-69
2023/07/11 00:02:49;;;;;;;11.63;8.60;;;;;;;25.07;46.68;96536.88;5047359;28;20187;-68
2023/07/11 00:05:17;;;;;;;9.60;8.23;;;;;;;24.82;47.27;96540.31;5047585;28;20520;-68
2023/07/11 00:07:43;;;;;;;10.47;8.20;;;;;;;24.84;47.48;96538.31;5047177;28;20205;-70
2023/07/11 00:10:13;;;;;;;14.63;8.17;;;;;;;24.81;47.13;96533.28;5047104;28;20461;-69
2023/07/11 00:12:39;;;;;;;9.73;8.53;;;;;;;24.75;47.12;96539.22;5047328;28;20439;-70
2023/07/11 00:15:06;;;;;;;8.47;7.57;;;;;;;24.81;47.19;96533.28;5047407;28;20440;-68
2023/07/11 00:17:31;;;;;;;8.50;7.33;;;;;;;24.77;47.24;96537.25;5047148;28;20221;-69
2023/07/11 00:19:58;;;;;;;7.27;6.57;;;;;;;24.61;47.62;96541.44;5046487;28;20868;-69
2023/07/11 00:22:27;;;;;;;7.20;6.47;;;;;;;23.98;48.65;96535.97;5046737;28;20191;-68
2023/07/11 00:24:53;;;;;;;7.63;6.53;;;;;;;23.70;49.85;96538.56;5046735;28;20938;-69
2023/07/11 00:27:21;;;;;;;6.70;6.00;;;;;;;23.92;49.37;96534.69;5046813;28;20413;-69
2023/07/11 00:29:47;;;;;;;9.23;7.23;;;;;;;24.44;48.05;96531.50;5046427;28;20178;-69
2023/07/11 00:32:12;;;;;;;8.70;7.50;;;;;;;24.71;47.68;96539.56;5046614;28;20522;-70
2023/07/11 00:34:38;;;;;;;8.27;7.30;;;;;;;24.58;47.73;96535.53;5046873;28;20173;-68
2023/07/11 00:37:04;;;;;;;19.00;9.80;;;;;;;24.53;48.06;96536.00;5046367;28;20186;-68
2023/07/11 00:39:31;;;;;;;7.80;6.87;;;;;;;24.32;48.52;96527.34;5045043;28;20170;-68
2023/07/11 00:41:57;;;;;;;11.23;7.40;;;;;;;24.25;48.65;96538.66;5046188;28;20536;-69
2023/07/11 00:44:24;;;;;;;8.10;7.30;;;;;;;24.07;48.48;96537.72;5046576;28;20543;-69
2023/07/11 00:46:50;;;;;;;7.80;7.10;;;;;;;23.97;48.36;96536.94;5045463;28;20190;-68
2023/07/11 00:49:19;;;;;;;13.27;7.43;;;;;;;23.57;49.91;96535.34;5025150;28;20508;-70
2023/07/11 00:51:58;;;;;;;8.00;6.40;;;;;;;23.83;49.27;96538.25;5024854;28;20825;-68
2023/07/11 00:54:31;;;;;;;9.53;6.63;;;;;;;24.00;48.76;96528.59;5025853;28;20468;-70
2023/07/11 00:57:00;;;;;;;14.10;7.20;;;;;;;24.21;48.24;96523.88;5026448;28;20414;-70
2023/07/11 00:59:26;;;;;;;16.93;8.07;;;;;;;24.09;48.04;96525.03;5025649;28;20468;-70
2023/07/11 01:02:18;;;;;;;10.00;7.23;;;;;;;24.32;48.50;96516.59;5026157;28;20445;-70
2023/07/11 01:04:44;;;;;;;8.10;7.03;;;;;;;24.59;47.35;96524.66;5026892;28;20402;-68
2023/07/11 01:07:13;;;;;;;7.83;7.03;;;;;;;24.62;46.98;96526.19;5026013;28;20414;-70
2023/07/11 01:09:39;;;;;;;9.77;8.77;;;;;;;24.49;47.47;96526.53;5026095;28;20175;-70
2023/07/11 01:12:08;;;;;;;7.77;7.07;;;;;;;24.57;47.25;96531.16;5026337;28;20464;-66
2023/07/11 01:14:35;;;;;;;8.40;7.50;;;;;;;24.45;47.53;96517.06;5026531;28;20180;-69
2023/07/11 01:17:18;;;;;;;13.13;7.40;;;;;;;24.27;47.78;96514.38;5026613;28;20416;-69
2023/07/11 01:19:43;;;;;;;10.30;8.07;;;;;;;24.38;47.90;96514.19;5026335;28;20524;-68
2023/07/11 01:22:08;;;;;;;12.63;7.40;;;;;;;24.16;48.39;96512.72;5026132;28;20430;-68
2023/07/11 01:24:34;;;;;;;11.93;8.70;;;;;;;24.14;48.33;96506.66;5026650;28;20640;-70
2023/07/11 01:26:59;;;;;;;10.40;8.30;;;;;;;24.14;48.12;96505.81;5026831;28;20529;-68
2023/07/11 01:29:24;;;;;;;10.43;7.13;;;;;;;23.78;49.22;96509.22;5026815;28;20529;-69
2023/07/11 01:31:50;;;;;;;10.77;7.90;;;;;;;23.78;49.06;96516.41;5026629;28;20606;-68
2023/07/11 01:34:15;;;;;;;10.30;8.17;;;;;;;23.68;49.24;96511.06;5027144;28;20179;-69
2023/07/11 01:36:40;;;;;;;10.27;7.20;;;;;;;23.78;49.13;96513.75;5027234;28;20356;-71
2023/07/11 01:39:06;;;;;;;10.43;7.90;;;;;;;23.85;49.03;96504.97;5009022;28;20175;-69
2023/07/11 01:41:32;;;;;;;19.87;8.03;;;;;;;23.82;49.36;96494.53;5032547;28;20201;-71
2023/07/11 01:43:57;;;;;;;7.73;7.03;;;;;;;23.96;48.67;96500.41;5040162;28;20537;-71
2023/07/11 01:46:23;;;;;;;13.20;7.10;;;;;;;23.89;48.83;96508.19;5032815;28;20167;-71
2023/07/11 01:48:48;;;;;;;9.77;7.00;;;;;;;23.76;49.22;96488.91;5043740;28;20166;-68
2023/07/11 01:51:14;;;;;;;13.30;7.70;;;;;;;23.82;49.28;96493.72;5048724;28;20230;-69
2023/07/11 01:53:40;;;;;;;8.57;7.63;;;;;;;23.98;48.89;96495.75;5050062;28;20213;-70
2023/07/11 01:56:05;;;;;;;11.07;8.20;;;;;;;24.09;48.31;96485.69;5050530;28;20437;-70
2023/07/11 01:58:32;;;;;;;22.70;8.17;;;;;;;23.96;48.90;96478.97;5050091;28;20171;-69
2023/07/11 02:00:59;;;;;;;9.80;7.33;;;;;;;23.88;48.79;96469.84;5049590;28;20240;-70
2023/07/11 02:03:24;;;;;;;11.00;7.50;;;;;;;23.82;49.00;96480.31;5049349;28;20432;-68
2023/07/11 02:05:50;;;;;;;8.27;7.37;;;;;;;23.60;49.19;96476.13;5049557;28;20405;-68
2023/07/11 02:08:16;;;;;;;23.33;7.60;;;;;;;23.55;49.35;96471.22;5049542;28;20170;-69
2023/07/11 02:10:41;;;;;;;18.77;7.13;;;;;;;23.74;48.78;96470.31;5048990;28;20756;-71
2023/07/11 02:13:07;;;;;;;12.53;7.40;;;;;;;23.68;49.02;96470.88;5049421;28;20201;-69
2023/07/11 02:15:33;;;;;;;30.03;9.00;;;;;;;23.74;49.00;96466.78;5049183;28;20195;-70
2023/07/11 02:17:58;;;;;;;16.77;7.20;;;;;;;23.56;48.92;96466.69;5049172;28;20506;-69
2023/07/11 02:20:24;;;;;;;17.73;7.50;;;;;;;23.50;49.13;96457.38;5048843;28;20257;-70
2023/07/11 02:22:49;;;;;;;9.67;7.00;;;;;;;23.50;49.20;96468.09;5048922;28;20205;-69
2023/07/11 02:25:15;;;;;;;10.87;7.33;;;;;;;23.56;49.13;96462.16;5049265;28;20209;-69
2023/07/11 02:27:40;;;;;;;21.13;7.80;;;;;;;23.80;48.68;96469.72;5049041;28;20174;-70
2023/07/11 02:30:06;;;;;;;9.60;6.87;;;;;;;24.04;48.26;96469.19;5049496;28;20261;-69
2023/07/11 02:32:32;;;;;;;15.43;7.87;;;;;;;24.12;48.40;96463.09;5049209;28;20186;-70
2023/07/11 02:34:57;;;;;;;12.03;7.30;;;;;;;23.93;48.58;96457.81;5049320;28;21292;-68
2023/07/11 02:37:23;;;;;;;10.87;7.33;;;;;;;23.90;48.51;96458.94;5049213;28;20178;-70
2023/07/11 02:39:48;;;;;;;10.00;7.10;;;;;;;23.53;49.42;96464.28;5048319;28;20201;-70
2023/07/11 02:42:13;;;;;;;12.23;7.70;;;;;;;23.52;49.47;96459.94;5048883;28;20187;-69
2023/07/11 02:44:39;;;;;;;7.50;6.67;;;;;;;23.34;50.09;96460.69;5048982;28;20238;-69
2023/07/11 02:47:04;;;;;;;13.30;7.27;;;;;;;23.76;49.18;96457.59;5045500;28;20575;-70
2023/07/11 02:49:30;;;;;;;12.20;8.73;;;;;;;23.72;48.87;96461.56;5028159;28;20255;-68
2023/07/11 02:51:55;;;;;;;19.50;7.70;;;;;;;23.84;48.62;96451.53;5028636;28;20637;-67
2023/07/11 02:54:21;;;;;;;25.57;8.20;;;;;;;23.94;48.37;96448.78;5028750;28;20171;-70
2023/07/11 02:56:46;;;;;;;23.33;10.90;;;;;;;23.73;48.77;96451.69;5027383;28;20223;-70
2023/07/11 02:59:11;;;;;;;38.90;9.93;;;;;;;23.69;49.05;96440.41;5028501;28;20481;-69
2023/07/11 03:01:37;;;;;;;11.00;7.57;;;;;;;23.43;49.63;96440.22;5027595;28;20230;-70
2023/07/11 03:04:03;;;;;;;23.37;8.50;;;;;;;23.65;49.01;96429.16;5028786;28;20542;-69
2023/07/11 03:06:28;;;;;;;19.73;7.07;;;;;;;23.71;48.82;96432.22;5028726;28;20647;-69
2023/07/11 03:08:54;;;;;;;20.83;7.67;;;;;;;23.68;48.98;96428.00;5028174;28;20172;-69
2023/07/11 03:11:19;;;;;;;11.20;7.97;;;;;;;23.85;48.40;96429.91;5028290;28;20211;-70
2023/07/11 03:13:45;;;;;;;22.60;8.90;;;;;;;23.63;48.92;96427.59;5028463;28;20270;-70
2023/07/11 03:16:10;;;;;;;40.07;10.20;;;;;;;23.48;49.34;96421.91;5028283;28;20249;-69
2023/07/11 03:18:36;;;;;;;14.77;7.80;;;;;;;23.40;49.63;96421.78;5028206;28;20167;-70
2023/07/11 03:21:02;;;;;;;12.10;7.63;;;;;;;23.26;49.92;96423.06;5027793;28;20828;-71
2023/07/11 03:23:28;;;;;;;11.40;6.87;;;;;;;23.26;50.21;96425.75;5028356;28;20175;-70
2023/07/11 03:25:53;;;;;;;39.30;9.90;;;;;;;23.12;50.22;96431.56;5028093;28;20450;-71
2023/07/11 03:28:19;;;;;;;13.87;8.90;;;;;;;23.10;50.36;96417.47;5028524;28;20474;-70
2023/07/11 03:30:44;;;;;;;10.00;6.80;;;;;;;23.53;49.37;96421.44;5027698;28;20227;-69
2023/07/11 03:33:09;;;;;;;17.90;7.70;;;;;;;23.52;49.39;96425.09;5028246;28;20207;-70
2023/07/11 03:35:35;;;;;;;13.10;7.17;;;;;;;23.39;49.70;96428.13;5028345;28;20241;-68
2023/07/11 03:38:01;;;;;;;15.30;7.53;;;;;;;23.25;50.38;96424.91;5028141;28;20168;-69
2023/07/11 03:40:26;;;;;;;25.70;8.87;;;;;;;23.12;50.80;96421.69;5028005;28;20274;-70
2023/07/11 03:42:52;;;;;;;27.37;8.60;;;;;;;23.01;50.73;96428.09;5027916;28;20203;-71
2023/07/11 03:45:18;;;;;;;11.67;7.73;;;;;;;22.94;50.84;96428.78;5028134;28;20204;-70
2023/07/11 03:47:43;;;;;;;16.43;7.70;;;;;;;23.16;50.61;96424.94;5039990;28;20179;-70
2023/07/11 03:50:09;;;;;;;42.90;11.23;;;;;;;23.17;50.39;96416.78;5047537;28;20171;-70
2023/07/11 03:52:35;;;;;;;19.80;7.70;;;;;;;23.08;50.51;96423.00;5047542;28;20247;-70
2023/07/11 03:55:00;;;;;;;23.50;9.90;;;;;;;23.32;49.99;96419.00;5047480;28;20189;-70
2023/07/11 03:57:25;;;;;;;22.70;9.07;;;;;;;23.27;50.09;96429.28;5047469;28;20213;-68
2023/07/11 03:59:51;;;;;;;26.50;9.20;;;;;;;23.08;50.37;96423.00;5047140;28;20179;-72
2023/07/11 04:02:16;;;;;;;26.53;10.50;;;;;;;23.11;50.50;96422.69;5047120;28;20199;-69
2023/07/11 04:04:42;;;;;;;24.23;9.83;;;;;;;23.11;50.46;96419.19;5047249;28;20233;-70
2023/07/11 04:07:07;;;;;;;20.63;8.10;;;;;;;23.13;50.31;96422.56;5047415;28;20170;-69
2023/07/11 04:09:33;;;;;;;25.03;9.27;;;;;;;23.27;49.85;96411.41;5046897;28;20175;-70
2023/07/11 04:11:58;;;;;;;29.10;8.83;;;;;;;23.39;49.71;96414.75;5047014;28;20206;-70
2023/07/11 04:14:23;;;;;;;28.27;8.93;;;;;;;23.48;49.43;96410.31;5046935;28;20179;-69
2023/07/11 04:16:49;;;;;;;22.93;8.67;;;;;;;23.45;49.37;96404.25;5047053;28;20174;-71
2023/07/11 04:19:14;;;;;;;16.63;8.77;;;;;;;23.45;49.41;96409.63;5028591;28;20260;-69
2023/07/11 04:21:40;;;;;;;53.47;11.07;;;;;;;23.68;48.73;96410.09;5046943;28;20193;-70
2023/07/11 04:24:05;;;;;;;20.70;8.90;;;;;;;23.63;48.73;96414.22;5046981;28;20221;-70
2023/07/11 04:26:31;;;;;;;9.40;6.63;;;;;;;23.56;48.89;96407.75;5046880;28;20281;-70
2023/07/11 04:28:56;;;;;;;22.37;9.50;;;;;;;23.69;48.33;96405.56;5039011;28;20193;-69
2023/07/11 04:31:22;;;;;;;13.23;8.20;;;;;;;23.90;48.09;96409.88;5025775;28;20226;-69
2023/07/11 04:33:47;;;;;;;11.23;7.90;;;;;;;24.08;47.21;96402.72;5026627;28;20663;-70
2023/07/11 04:36:14;;;;;;;8.23;7.43;;;;;;;23.98;47.58;96404.63;5022173;28;20188;-70
2023/07/11 04:38:40;;;;;;;14.00;8.00;;;;;;;24.09;47.36;96399.03;5025475;28;20202;-68
2023/07/11 04:41:07;;;;;;;53.63;12.60;;;;;;;24.09;47.22;96405.25;5029440;28;20806;-70
2023/07/11 04:43:33;;;;;;;20.07;8.33;;;;;;;24.01;47.37;96401.63;5027240;28;20944;-70
2023/07/11 04:46:00;;;;;;;22.77;8.87;;;;;;;24.11;47.18;96394.34;5034607;28;20422;-70
2023/07/11 04:48:26;;;;;;;27.50;8.97;;;;;;;24.15;47.17;96393.06;5037249;28;20407;-68
2023/07/11 04:51:11;;;;;;;59.10;14.07;;;;;;;24.14;47.33;96407.44;5038348;28;20476;-69
2023/07/11 04:53:37;;;;;;;26.13;10.13;;;;;;;24.26;47.00;96403.59;5036579;28;20178;-70
2023/07/11 04:56:10;;;;;;;18.50;8.37;;;;;;;24.38;46.80;96400.66;5030906;28;20473;-70
2023/07/11 04:58:35;;;;;;;31.70;9.03;;;;;;;24.47;46.25;96402.44;5018172;28;20480;-70
2023/07/11 05:01:03;;;;;;;19.90;8.20;;;;;;;24.36;46.80;96400.00;5024167;28;20434;-70
2023/07/11 05:03:29;;;;;;;47.20;11.63;;;;;;;24.57;46.35;96392.50;5024988;28;20180;-68
2023/07/11 05:05:55;;;;;;;16.80;9.03;;;;;;;24.55;46.28;96397.16;5023615;28;20426;-70
2023/07/11 05:08:21;;;;;;;12.63;7.70;;;;;;;24.48;46.52;96396.94;5023759;28;20190;-70
2023/07/11 05:10:53;;;;;;;27.90;10.53;;;;;;;24.76;46.19;96391.47;5023174;28;20477;-70
2023/07/11 05:13:19;;;;;;;12.03;7.23;;;;;;;25.03;45.71;96382.44;5014250;28;20172;-68
2023/07/11 05:15:45;;;;;;;9.70;7.00;;;;;;;25.05;45.04;96391.19;5023346;28;20530;-69
2023/07/11 05:18:10;;;;;;;15.40;8.27;;;;;;;25.10;45.25;96391.53;5013846;28;20237;-67
2023/07/11 05:20:36;;;;;;;10.10;7.40;;;;;;;25.20;44.71;96386.09;5022884;28;20199;-68
2023/07/11 05:23:01;;;;;;;15.87;9.53;;;;;;;25.14;44.70;96390.25;5021121;28;20226;-70
2023/07/11 05:25:27;;;;;;;10.73;9.50;;;;;;;25.31;44.40;96380.47;5013170;28;20218;-69
2023/07/11 05:27:52;;;;;;;17.93;10.20;;;;;;;25.42;44.28;96375.81;5023102;28;20823;-69
2023/07/11 05:30:17;;;;;;;11.17;9.70;;;;;;;25.58;44.07;96378.56;5018352;28;20179;-67
2023/07/11 05:32:43;;;;;;;10.63;8.83;;;;;;;25.57;43.79;96379.59;5022788;28;20842;-70
2023/07/11 05:35:08;;;;;;;13.10;7.70;;;;;;;25.11;44.83;96371.75;5023700;28;20218;-67
2023/07/11 05:37:34;;;;;;;26.80;9.27;;;;;;;25.40;44.00;96373.28;5023581;28;20254;-69
2023/07/11 05:39:59;;;;;;;25.47;9.50;;;;;;;25.73;43.10;96374.28;5022386;28;20264;-69
2023/07/11 05:42:24;;;;;;;38.63;9.83;;;;;;;25.78;43.01;96371.09;5023297;28;20287;-69
2023/07/11 05:44:50;;;;;;;23.30;9.87;;;;;;;25.73;42.91;96370.75;5022393;28;20226;-68
2023/07/11 05:47:15;;;;;;;9.60;7.73;;;;;;;25.65;42.78;96373.38;5021543;28;20712;-70
2023/07/11 05:49:40;;;;;;;12.30;7.60;;;;;;;25.79;43.36;96359.34;5022545;28;20264;-67
2023/07/11 05:52:06;;;;;;;46.80;10.43;;;;;;;26.15;42.38;96353.72;5022334;28;20785;-69
2023/07/11 05:54:31;;;;;;;51.50;12.30;;;;;;;26.32;41.62;96357.31;5022265;28;20175;-70
2023/07/11 05:56:57;;;;;;;10.83;8.70;;;;;;;25.33;43.88;96356.97;5021122;28;20278;-67
2023/07/11 05:59:22;;;;;;;9.23;7.73;;;;;;;25.06;44.40;96357.09;5021988;28;20175;-69
2023/07/11 06:01:47;;;;;;;33.60;9.23;;;;;;;25.65;43.01;96346.50;5022836;28;20183;-69
2023/07/11 06:04:16;;;;;;;11.97;8.03;;;;;;;25.67;42.98;96347.19;5023016;28;20253;-69
2023/07/11 06:06:42;;;;;;;50.13;10.90;;;;;;;26.22;42.13;96351.22;5022917;28;20926;-71
2023/07/11 06:09:16;;;;;;;19.43;8.90;;;;;;;26.46;41.35;96343.19;5020462;28;20438;-69
2023/07/11 06:11:42;;;;;;;16.53;9.07;;;;;;;26.73;41.34;96350.09;5022752;28;20932;-70
2023/07/11 06:14:09;;;;;;;12.43;8.33;;;;;;;26.53;41.41;96346.91;5022725;28;20934;-68
2023/07/11 06:16:35;;;;;;;18.97;9.47;;;;;;;26.90;40.98;96342.03;5023292;28;20414;-70
2023/07/11 06:19:00;;;;;;;27.83;9.40;;;;;;;27.09;40.62;96340.81;5022379;28;20437;-70
2023/07/11 06:21:26;;;;;;;14.40;8.53;;;;;;;26.92;40.83;96340.00;5004914;28;20248;-69
2023/07/11 06:23:51;;;;;;;10.00;7.73;;;;;;;26.50;41.18;96335.63;5022995;28;20270;-70
2023/07/11 06:26:16;;;;;;;9.77;7.83;;;;;;;26.80;40.42;96339.50;5023702;28;20270;-71
2023/07/11 06:28:43;;;;;;;10.40;8.50;;;;;;;26.77;40.06;96338.00;5042297;28;20183;-69
2023/07/11 06:31:11;;;;;;;13.90;9.33;;;;;;;26.82;40.45;96341.03;5033175;28;20257;-68
2023/07/11 06:33:36;;;;;;;14.43;8.67;;;;;;;26.90;40.54;96333.94;5012997;28;20453;-69
2023/07/11 06:36:04;;;;;;;19.73;8.50;;;;;;;27.31;39.81;96339.25;5004914;28;20453;-69
2023/07/11 06:38:29;;;;;;;15.90;8.83;;;;;;;27.66;39.26;96346.88;5026523;28;20181;-69
2023/07/11 06:40:56;;;;;;;16.33;9.40;;;;;;;27.65;39.74;96339.81;5018802;28;21006;-69
2023/07/11 06:43:23;;;;;;;41.00;12.33;;;;;;;27.60;40.17;96341.34;5016163;28;20192;-69
2023/07/11 06:45:51;;;;;;;24.93;11.60;;;;;;;27.62;40.38;96340.16;5020914;28;20759;-70
2023/07/11 06:48:18;;;;;;;14.37;11.43;;;;;;;27.82;40.66;96337.03;5042588;28;21273;-67
2023/07/11 06:50:50;;;;;;;17.83;11.87;;;;;;;27.88;40.43;96349.03;5031047;28;20473;-69
2023/07/11 06:53:17;;;;;;;20.87;11.90;;;;;;;27.91;40.77;96345.97;5030874;28;20874;-68
2023/07/11 06:55:47;;;;;;;15.50;11.57;;;;;;;27.74;40.54;96343.31;5037307;28;20406;-69
2023/07/11 06:58:12;;;;;;;21.23;11.77;;;;;;;27.99;39.28;96340.50;5026934;28;20516;-67
2023/07/11 07:00:38;;;;;;;18.60;11.77;;;;;;;28.61;37.38;96343.16;5020352;28;20512;-68
2023/07/11 07:03:03;;;;;;;11.97;10.60;;;;;;;28.61;37.88;96340.44;5023088;28;20210;-68
2023/07/11 07:05:28;;;;;;;17.17;10.50;;;;;;;28.48;37.02;96341.03;5028061;28;20175;-69
2023/07/11 07:07:54;;;;;;;10.00;8.27;;;;;;;27.79;37.42;96345.47;5027981;28;20559;-68
2023/07/11 07:10:19;;;;;;;19.83;9.23;;;;;;;27.98;37.66;96336.97;5026961;28;20218;-67
2023/07/11 07:12:44;;;;;;;18.90;8.60;;;;;;;28.31;37.07;96344.03;5027089;28;20222;-68
2023/07/11 07:15:10;;;;;;;12.17;8.60;;;;;;;28.06;37.49;96331.53;5027781;28;20169;-68
2023/07/11 07:17:35;;;;;;;12.37;8.93;;;;;;;28.77;36.39;96336.75;5028099;28;20171;-67
2023/07/11 07:20:01;;;;;;;17.10;8.20;;;;;;;28.18;36.39;96336.50;5027761;28;20201;-69
2023/07/11 07:22:26;;;;;;;15.60;8.73;;;;;;;28.83;35.79;96333.31;5028202;28;20655;-66
2023/07/11 07:24:51;;;;;;;8.47;7.67;;;;;;;28.43;36.04;96331.78;5027806;28;20217;-68
2023/07/11 07:27:17;;;;;;;13.27;7.87;;;;;;;28.02;37.28;96329.38;5028422;28;20233;-66
2023/07/11 07:29:43;;;;;;;15.80;8.40;;;;;;;28.50;37.23;96325.50;5027482;28;20202;-68
2023/07/11 07:32:09;;;;;;;9.23;7.10;;;;;;;28.74;36.54;96326.31;5009877;28;20453;-68
2023/07/11 07:34:34;;;;;;;21.97;9.20;;;;;;;28.89;36.35;96329.03;5027902;28;20280;-68
2023/07/11 07:37:00;;;;;;;9.70;8.70;;;;;;;28.77;36.59;96325.09;5027914;28;20193;-69
2023/07/11 07:39:25;;;;;;;13.30;9.70;;;;;;;28.19;38.15;96332.81;5027218;28;20605;-68
2023/07/11 07:41:50;;;;;;;15.60;8.80;;;;;;;27.89;38.81;96332.63;5028023;28;21039;-68
2023/07/11 07:44:16;;;;;;;11.77;8.47;;;;;;;28.40;38.29;96315.97;5028442;28;20175;-68
2023/07/11 07:46:42;;;;;;;20.17;9.10;;;;;;;29.37;36.73;96318.78;5027764;28;20186;-68
2023/07/11 07:49:07;;;;;;;11.10;8.33;;;;;;;29.05;36.23;96320.78;5026495;28;20205;-66
2023/07/11 07:51:32;;;;;;;9.20;7.80;;;;;;;29.10;37.03;96314.84;5027497;28;20257;-68
2023/07/11 07:53:58;;;;;;;18.50;9.83;;;;;;;28.78;37.55;96314.13;5027535;28;20171;-69
2023/07/11 07:56:24;;;;;;;18.00;8.57;;;;;;;29.28;36.82;96311.78;5027568;28;20174;-69
2023/07/11 07:58:50;;;;;;;26.37;9.43;;;;;;;29.16;37.12;96310.59;5027301;28;20170;-70
2023/07/11 08:01:18;;;;;;;11.50;8.60;;;;;;;29.25;37.45;96310.31;5027516;28;20205;-67
2023/07/11 08:03:44;;;;;;;9.90;8.90;;;;;;;29.54;37.45;96303.19;5028041;28;20417;-68
2023/07/11 08:06:11;;;;;;;11.27;8.70;;;;;;;30.19;35.97;96301.50;5027792;28;20410;-69
2023/07/11 08:08:37;;;;;;;12.07;8.70;;;;;;;29.94;36.64;96295.59;5027637;28;20189;-67
2023/07/11 08:11:04;;;;;;;18.63;9.07;;;;;;;30.29;36.78;96296.63;5028046;28;20462;-69
2023/07/11 08:13:30;;;;;;;11.40;9.40;;;;;;;29.79;36.81;96297.47;5027383;28;20167;-67
2023/07/11 08:15:55;;;;;;;16.40;9.40;;;;;;;29.99;37.20;96287.72;5027177;28;20409;-67
2023/07/11 08:18:21;;;;;;;10.60;9.33;;;;;;;30.01;37.37;96285.69;5027100;28;20410;-68
2023/07/11 08:20:46;;;;;;;16.97;9.60;;;;;;;30.69;35.76;96275.31;5027092;28;20250;-68
2023/07/11 08:23:12;;;;;;;14.13;8.73;;;;;;;31.07;35.23;96276.84;5031188;28;20170;-70
2023/07/11 08:25:37;;;;;;;25.93;10.60;;;;;;;31.06;34.85;96280.59;5027172;28;20537;-69
2023/07/11 08:28:04;;;;;;;11.40;9.33;;;;;;;30.82;35.56;96279.97;5027092;28;20643;-68
2023/07/11 08:30:34;;;;;;;11.17;10.00;;;;;;;31.21;34.95;96267.75;5026674;28;20327;-67
2023/07/11 08:32:59;;;;;;;12.70;9.50;;;;;;;31.04;34.98;96264.53;5026879;28;20440;-66
2023/07/11 08:35:25;;;;;;;21.00;10.67;;;;;;;31.48;34.57;96266.03;5024271;28;20430;-69
2023/07/11 08:37:50;;;;;;;10.10;9.17;;;;;;;30.96;35.91;96265.50;5025490;28;20171;-69
2023/07/11 08:40:19;;;;;;;16.73;8.90;;;;;;;31.06;36.31;96264.31;5032444;28;21020;-67
2023/07/11 08:42:45;;;;;;;19.23;9.57;;;;;;;31.24;35.71;96270.06;5020450;28;20202;-68
2023/07/11 08:45:24;;;;;;;17.67;9.17;;;;;;;31.43;35.21;96263.09;5027241;28;20472;-70
2023/07/11 08:48:11;;;;;;;14.00;10.57;;;;;;;31.12;36.00;96256.22;5026814;28;20410;-70
2023/07/11 08:50:45;;;;;;;14.17;10.17;;;;;;;30.50;37.68;96259.75;5006576;28;21130;-68
2023/07/11 08:53:17;;;;;;;12.30;9.20;;;;;;;31.05;36.37;96268.09;5006724;28;20406;-69
2023/07/11 08:55:48;;;;;;;12.57;10.10;;;;;;;31.57;35.76;96272.97;5023007;28;20517;-70
2023/07/11 08:58:34;;;;;;;14.77;9.03;;;;;;;31.75;35.28;96258.00;5030562;28;20462;-69
2023/07/11 09:01:03;;;;;;;21.30;10.23;;;;;;;31.84;34.97;96256.78;5037310;28;20400;-68
2023/07/11 09:03:34;;;;;;;11.80;10.60;;;;;;;31.83;35.23;96257.81;5046549;28;20409;-68
2023/07/11 09:06:03;;;;;;;16.77;9.53;;;;;;;31.91;35.07;96252.19;5046359;28;20808;-69
2023/07/11 09:08:29;;;;;;;20.70;9.80;;;;;;;32.21;34.61;96244.56;5046357;28;20411;-69
2023/07/11 09:11:03;;;;;;;14.97;9.30;;;;;;;32.06;34.76;96235.78;5045843;28;20862;-66
2023/07/11 09:13:54;;;;;;;34.27;11.07;;;;;;;32.03;34.94;96237.03;5032052;28;20182;-69
2023/07/11 09:16:34;;;;;;;19.67;9.80;;;;;;;32.04;34.63;96235.16;5026247;28;20460;-69
2023/07/11 09:19:02;;;;;;;15.77;10.23;;;;;;;32.29;34.50;96229.94;5019986;28;20445;-70
2023/07/11 09:21:39;;;;;;;20.23;10.90;;;;;;;32.43;34.45;96225.34;5031174;28;20267;-69
2023/07/11 09:24:32;;;;;;;14.43;9.43;;;;;;;32.36;34.90;96230.78;5026503;28;20406;-67
2023/07/11 09:27:22;;;;;;;10.70;9.70;;;;;;;32.52;34.34;96221.41;5007791;28;20556;-67
2023/07/11 09:29:49;;;;;;;20.60;10.73;;;;;;;32.84;33.75;96210.75;5006524;28;20438;-68
2023/07/11 09:32:16;;;;;;;17.50;10.20;;;;;;;32.79;34.00;96213.22;5006367;28;20504;-67
2023/07/11 09:34:44;;;;;;;11.83;9.80;;;;;;;32.58;34.39;96211.63;5006575;28;20668;-68
2023/07/11 09:37:34;;;;;;;17.80;10.60;;;;;;;32.44;34.85;96213.47;5011092;28;20421;-69
2023/07/11 09:40:09;;;;;;;16.70;9.67;;;;;;;32.60;34.59;96207.63;5025975;28;20498;-68
2023/07/11 09:42:40;;;;;;;11.17;8.77;;;;;;;32.44;35.21;96203.44;5026060;28;20241;-67
2023/07/11 09:45:14;;;;;;;9.80;8.80;;;;;;;32.27;35.05;96204.91;5026621;28;20417;-68
2023/07/11 09:47:41;;;;;;;16.87;9.60;;;;;;;32.35;35.30;96203.84;5026944;28;20502;-68
2023/07/11 09:50:42;;;;;;;17.20;9.87;;;;;;;32.67;34.54;96197.59;5026047;28;20425;-69
2023/07/11 09:53:15;;;;;;;17.80;10.27;;;;;;;32.82;34.19;96199.25;5025845;28;21013;-68
2023/07/11 09:55:41;;;;;;;18.80;9.60;;;;;;;32.82;34.26;96201.97;5025749;28;20179;-69
2023/07/11 09:58:16;;;;;;;17.03;10.70;;;;;;;32.68;34.24;96193.81;5025962;28;20812;-70
2023/07/11 10:00:48;;;;;;;12.90;9.10;;;;;;;31.94;35.36;96193.94;5025941;28;20163;-69
2023/07/11 10:03:22;;;;;;;9.83;8.70;;;;;;;32.15;35.72;96196.53;5025907;28;20498;-67
2023/07/11 10:05:50;;;;;;;32.97;11.70;;;;;;;32.63;34.13;96200.94;5025862;28;20424;-68
2023/07/11 10:08:49;;;;;;;13.57;8.87;;;;;;;32.71;33.23;96187.13;5026192;28;20189;-67
2023/07/11 10:11:15;;;;;;;9.00;8.20;;;;;;;32.59;33.60;96189.66;4993624;28;20476;-69
2023/07/11 10:13:41;;;;;;;9.13;8.03;;;;;;;32.49;33.48;96183.78;5034337;28;20818;-68
2023/07/11 10:16:07;;;;;;;18.93;9.47;;;;;;;32.59;33.79;96181.50;5034217;28;20648;-69
2023/07/11 10:18:35;;;;;;;22.13;11.23;;;;;;;32.69;33.83;96181.06;5030213;28;20414;-68
2023/07/11 10:21:31;;;;;;;12.20;9.53;;;;;;;32.61;33.68;96182.13;5029548;28;20177;-69
2023/07/11 10:23:56;;;;;;;22.63;9.93;;;;;;;32.75;33.03;96172.06;5028479;28;20680;-68
2023/07/11 10:26:27;;;;;;;16.10;8.90;;;;;;;32.87;32.26;96173.09;5029676;28;20179;-67
2023/07/11 10:29:10;;;;;;;12.53;8.10;;;;;;;32.94;32.01;96183.94;5029276;28;20174;-67
2023/07/11 10:31:44;;;;;;;13.83;8.63;;;;;;;33.06;31.83;96174.09;5028963;28;20213;-70
2023/07/11 10:34:43;;;;;;;16.00;7.60;;;;;;;33.05;29.95;96172.44;5029785;28;20171;-69
2023/07/11 10:37:15;;;;;;;11.17;7.90;;;;;;;33.00;29.92;96163.22;5012697;28;20689;-68
2023/07/11 10:39:48;;;;;;;12.10;8.50;;;;;;;32.78;31.65;96152.63;5008843;28;20195;-68
2023/07/11 10:42:31;;;;;;;9.43;8.47;;;;;;;32.83;31.61;96152.81;5009990;28;20192;-68
2023/07/11 10:45:07;;;;;;;14.57;8.33;;;;;;;32.98;31.50;96152.56;5008968;28;20207;-69
2023/07/11 10:47:38;;;;;;;16.97;9.43;;;;;;;32.50;32.68;96152.88;5022421;28;20554;-69
2023/07/11 10:50:17;;;;;;;15.37;10.33;;;;;;;32.21;32.63;96141.38;5048083;28;20170;-69
2023/07/11 10:52:53;;;;;;;8.73;7.83;;;;;;;32.32;32.27;96141.78;5048469;28;20564;-69
2023/07/11 10:55:24;;;;;;;12.07;8.60;;;;;;;32.37;32.54;96136.59;5030823;28;20174;-69
2023/07/11 10:57:52;;;;;;;10.63;8.17;;;;;;;32.59;32.42;96142.63;5049093;28;20177;-69
2023/07/11 11:00:22;;;;;;;9.07;8.23;;;;;;;32.71;32.08;96140.09;5049956;28;20200;-68
2023/07/11 11:03:00;;;;;;;10.00;8.20;;;;;;;32.51;32.40;96143.69;5049853;28;20285;-68
2023/07/11 11:05:59;;;;;;;26.03;9.60;;;;;;;32.75;31.92;96134.03;5035600;28;20535;-69
2023/07/11 11:08:34;;;;;;;14.37;7.77;;;;;;;32.70;31.92;96133.84;5020092;28;20186;-67
2023/07/11 11:11:25;;;;;;;15.70;9.13;;;;;;;32.34;32.71;96126.97;5036704;28;20198;-68
2023/07/11 11:13:56;;;;;;;9.00;8.20;;;;;;;32.08;32.53;96113.41;5032409;28;20312;-68
2023/07/11 11:16:34;;;;;;;11.50;8.13;;;;;;;32.33;32.07;96119.03;5048752;28;20179;-69
2023/07/11 11:19:08;;;;;;;14.93;8.30;;;;;;;32.46;31.88;96108.16;5030266;28;20178;-66
2023/07/11 11:21:34;;;;;;;20.87;8.00;;;;;;;32.53;32.08;96113.59;5028697;28;20209;-67
2023/07/11 11:23:59;;;;;;;13.83;9.10;;;;;;;32.49;32.35;96096.88;5027489;28;20225;-68
2023/07/11 11:26:48;;;;;;;9.47;8.67;;;;;;;32.53;32.56;96098.16;5028586;28;20213;-67
2023/07/11 11:29:41;;;;;;;10.00;8.30;;;;;;;32.61;32.40;96095.19;5028132;28;20178;-68